West Kingston, Rhode Island
Current Conditions -  °F | °C
As of 11:05 PM on Wednesday 22 Oct 2014 (Local Time) from KUUU Reporting Station
Light Rain Light Rain  
Wind Chill: 57°   Ceiling: 900
Heat Index: 57°   Visibility: 5mi
Dew Point: 53°   Wind: 20mph
Humidity: 87%   Direction: 20°NNE
Pressure: 29.7"   Gusts: 26mph
Location:  41.48°N, 71.55°W
Report Text: KUUU 230305Z AUTO 02017G23KT 5SM -RA BR BKN009 BKN013 OVC019 14/12 A2970 RMK AO2 P0001 T01390117
Loading
Personal Weather Stations






























Interactive Weather Map
Tropical Storm Tracking
New forecast layout! Learn more

10-Day Weather Forecast

Advertisements
Track Severe Weather on mobile